sensor_id;sensor_type;location;lat;lon;timestamp;temperature;humidity
75357;HTU21D;63946;51.986;5.930;2022-10-17T04:32:48;14.84;77.77
75357;HTU21D;63946;51.986;5.930;2022-10-17T04:35:20;14.84;77.88
75357;HTU21D;63946;51.986;5.930;2022-10-17T04:37:58;14.87;77.83
75357;HTU21D;63946;51.986;5.930;2022-10-17T04:40:27;14.88;77.73
75357;HTU21D;63946;51.986;5.930;2022-10-17T04:42:56;14.85;77.57
75357;HTU21D;63946;51.986;5.930;2022-10-17T04:45:32;14.84;77.54
75357;HTU21D;63946;51.986;5.930;2022-10-17T04:48:02;14.83;77.51
75357;HTU21D;63946;51.986;5.930;2022-10-17T04:50:33;14.83;77.50
75357;HTU21D;63946;51.986;5.930;2022-10-17T04:53:22;14.82;77.44
75357;HTU21D;63946;51.986;5.930;2022-10-17T04:55:53;14.83;77.46
75357;HTU21D;63946;51.986;5.930;2022-10-17T04:58:22;14.81;77.48
75357;HTU21D;63946;51.986;5.930;2022-10-17T05:00:51;14.82;77.60
75357;HTU21D;63946;51.986;5.930;2022-10-17T05:03:24;14.85;77.56
75357;HTU21D;63946;51.986;5.930;2022-10-17T05:05:53;14.85;77.50
75357;HTU21D;63946;51.986;5.930;2022-10-17T05:08:22;14.84;77.46
75357;HTU21D;63946;51.986;5.930;2022-10-17T05:10:51;14.85;77.50
75357;HTU21D;63946;51.986;5.930;2022-10-17T05:13:20;14.83;77.48
75357;HTU21D;63946;51.986;5.930;2022-10-17T05:15:48;14.81;77.54
75357;HTU21D;63946;51.986;5.930;2022-10-17T05:18:17;14.80;77.59
75357;HTU21D;63946;51.986;5.930;2022-10-17T05:20:46;14.80;77.62
75357;HTU21D;63946;51.986;5.930;2022-10-17T05:23:14;14.75;77.65
75357;HTU21D;63946;51.986;5.930;2022-10-17T05:25:43;14.74;77.76
75357;HTU21D;63946;51.986;5.930;2022-10-17T05:28:12;14.74;77.73
75357;HTU21D;63946;51.986;5.930;2022-10-17T05:30:42;14.73;77.68
75357;HTU21D;63946;51.986;5.930;2022-10-17T05:33:10;14.70;77.72
75357;HTU21D;63946;51.986;5.930;2022-10-17T05:35:39;14.68;77.69
75357;HTU21D;63946;51.986;5.930;2022-10-17T05:38:09;14.65;77.76
75357;HTU21D;63946;51.986;5.930;2022-10-17T05:40:40;14.62;77.77
75357;HTU21D;63946;51.986;5.930;2022-10-17T05:43:09;14.64;78.03
75357;HTU21D;63946;51.986;5.930;2022-10-17T05:45:40;14.65;78.07
75357;HTU21D;63946;51.986;5.930;2022-10-17T05:48:15;14.64;78.08
75357;HTU21D;63946;51.986;5.930;2022-10-17T05:50:44;14.63;77.95
75357;HTU21D;63946;51.986;5.930;2022-10-17T05:53:16;14.65;77.84
75357;HTU21D;63946;51.986;5.930;2022-10-17T05:55:59;14.66;77.77
75357;HTU21D;63946;51.986;5.930;2022-10-17T05:58:30;14.63;77.98
75357;HTU21D;63946;51.986;5.930;2022-10-17T06:01:01;14.63;78.18
75357;HTU21D;63946;51.986;5.930;2022-10-17T06:03:30;14.64;78.13
75357;HTU21D;63946;51.986;5.930;2022-10-17T06:06:09;14.66;77.98
75357;HTU21D;63946;51.986;5.930;2022-10-17T06:08:42;14.66;78.01
75357;HTU21D;63946;51.986;5.930;2022-10-17T06:11:14;14.69;77.96
75357;HTU21D;63946;51.986;5.930;2022-10-17T06:13:44;14.71;77.92
75357;HTU21D;63946;51.986;5.930;2022-10-17T06:16:19;14.71;77.98
75357;HTU21D;63946;51.986;5.930;2022-10-17T06:18:48;14.73;78.04
75357;HTU21D;63946;51.986;5.930;2022-10-17T06:21:21;14.74;78.11
75357;HTU21D;63946;51.986;5.930;2022-10-17T06:23:53;14.77;78.13
75357;HTU21D;63946;51.986;5.930;2022-10-17T06:26:29;14.79;78.30
75357;HTU21D;63946;51.986;5.930;2022-10-17T06:28:58;14.81;78.50
75357;HTU21D;63946;51.986;5.930;2022-10-17T06:31:31;14.88;78.50
75357;HTU21D;63946;51.986;5.930;2022-10-17T06:34:02;14.92;78.46
75357;HTU21D;63946;51.986;5.930;2022-10-17T06:36:33;14.98;78.50
75357;HTU21D;63946;51.986;5.930;2022-10-17T06:39:02;15.07;78.30
75357;HTU21D;63946;51.986;5.930;2022-10-17T06:41:39;15.11;78.14
75357;HTU21D;63946;51.986;5.930;2022-10-17T06:44:09;15.19;78.22
75357;HTU21D;63946;51.986;5.930;2022-10-17T06:46:50;15.30;78.01
75357;HTU21D;63946;51.986;5.930;2022-10-17T06:49:20;15.38;78.10
75357;HTU21D;63946;51.986;5.930;2022-10-17T06:51:51;15.46;77.95
75357;HTU21D;63946;51.986;5.930;2022-10-17T06:54:27;15.53;77.77
75357;HTU21D;63946;51.986;5.930;2022-10-17T06:57:17;15.60;77.98
75357;HTU21D;63946;51.986;5.930;2022-10-17T07:00:01;15.68;77.95
75357;HTU21D;63946;51.986;5.930;2022-10-17T07:02:37;15.70;77.95
75357;HTU21D;63946;51.986;5.930;2022-10-17T07:05:06;15.75;78.21
75357;HTU21D;63946;51.986;5.930;2022-10-17T07:07:35;15.84;78.08
75357;HTU21D;63946;51.986;5.930;2022-10-17T07:10:04;15.88;77.51
75357;HTU21D;63946;51.986;5.930;2022-10-17T07:12:36;15.91;77.62
75357;HTU21D;63946;51.986;5.930;2022-10-17T07:15:05;15.98;77.36
75357;HTU21D;63946;51.986;5.930;2022-10-17T07:17:34;16.02;76.94
75357;HTU21D;63946;51.986;5.930;2022-10-17T07:20:03;16.06;76.53
75357;HTU21D;63946;51.986;5.930;2022-10-17T07:22:34;16.08;76.42
75357;HTU21D;63946;51.986;5.930;2022-10-17T07:25:03;16.10;76.28
75357;HTU21D;63946;51.986;5.930;2022-10-17T07:27:37;16.10;76.52
75357;HTU21D;63946;51.986;5.930;2022-10-17T07:30:07;16.14;76.92
75357;HTU21D;63946;51.986;5.930;2022-10-17T07:32:38;16.21;76.81
75357;HTU21D;63946;51.986;5.930;2022-10-17T07:35:09;16.28;76.86
75357;HTU21D;63946;51.986;5.930;2022-10-17T07:37:40;16.36;76.15
75357;HTU21D;63946;51.986;5.930;2022-10-17T07:40:09;16.43;75.89
75357;HTU21D;63946;51.986;5.930;2022-10-17T07:42:39;16.52;76.06
75357;HTU21D;63946;51.986;5.930;2022-10-17T07:45:08;16.62;76.15
75357;HTU21D;63946;51.986;5.930;2022-10-17T07:47:37;16.69;76.30
75357;HTU21D;63946;51.986;5.930;2022-10-17T07:50:08;16.75;76.29
75357;HTU21D;63946;51.986;5.930;2022-10-17T07:52:37;16.77;76.44
75357;HTU21D;63946;51.986;5.930;2022-10-17T07:55:08;16.79;76.62
75357;HTU21D;63946;51.986;5.930;2022-10-17T07:57:37;16.80;76.36
75357;HTU21D;63946;51.986;5.930;2022-10-17T08:00:07;16.79;76.43
75357;HTU21D;63946;51.986;5.930;2022-10-17T08:02:39;16.78;76.57
75357;HTU21D;63946;51.986;5.930;2022-10-17T08:05:08;16.79;76.85
75357;HTU21D;63946;51.986;5.930;2022-10-17T08:07:36;16.81;76.80
75357;HTU21D;63946;51.986;5.930;2022-10-17T08:10:06;16.84;76.61
75357;HTU21D;63946;51.986;5.930;2022-10-17T08:12:35;16.81;76.57
75357;HTU21D;63946;51.986;5.930;2022-10-17T08:15:05;16.77;76.18
75357;HTU21D;63946;51.986;5.930;2022-10-17T08:17:38;16.71;75.99
75357;HTU21D;63946;51.986;5.930;2022-10-17T08:20:08;16.67;76.49
75357;HTU21D;63946;51.986;5.930;2022-10-17T08:22:37;16.66;76.28
75357;HTU21D;63946;51.986;5.930;2022-10-17T08:25:06;16.66;76.43
75357;HTU21D;63946;51.986;5.930;2022-10-17T08:27:38;16.65;76.12
75357;HTU21D;63946;51.986;5.930;2022-10-17T08:30:10;16.63;76.24
75357;HTU21D;63946;51.986;5.930;2022-10-17T08:32:39;16.65;76.84
75357;HTU21D;63946;51.986;5.930;2022-10-17T08:35:08;16.69;76.64
75357;HTU21D;63946;51.986;5.930;2022-10-17T08:37:39;16.71;76.73
75357;HTU21D;63946;51.986;5.930;2022-10-17T08:40:20;16.74;77.12
75357;HTU21D;63946;51.986;5.930;2022-10-17T08:43:20;16.77;77.29
75357;HTU21D;63946;51.986;5.930;2022-10-17T08:45:56;16.78;77.54
75357;HTU21D;63946;51.986;5.930;2022-10-17T08:48:30;16.81;77.65
75357;HTU21D;63946;51.986;5.930;2022-10-17T08:51:23;16.85;77.84
75357;HTU21D;63946;51.986;5.930;2022-10-17T08:54:12;16.82;77.08
75357;HTU21D;63946;51.986;5.930;2022-10-17T08:56:48;16.79;77.12
75357;HTU21D;63946;51.986;5.930;2022-10-17T08:59:25;16.78;77.31
75357;HTU21D;63946;51.986;5.930;2022-10-17T09:08:10;16.85;78.00
75357;HTU21D;63946;51.986;5.930;2022-10-17T09:11:01;16.87;77.75
75357;HTU21D;63946;51.986;5.930;2022-10-17T09:14:03;16.87;77.95
75357;HTU21D;63946;51.986;5.930;2022-10-17T09:16:52;16.88;78.26
75357;HTU21D;63946;51.986;5.930;2022-10-17T09:19:28;16.90;78.54
75357;HTU21D;63946;51.986;5.930;2022-10-17T09:22:22;16.93;78.54
75357;HTU21D;63946;51.986;5.930;2022-10-17T09:24:58;16.95;78.80
75357;HTU21D;63946;51.986;5.930;2022-10-17T09:33:24;17.03;78.68
75357;HTU21D;63946;51.986;5.930;2022-10-17T09:35:59;17.02;78.48
75357;HTU21D;63946;51.986;5.930;2022-10-17T09:38:35;17.05;78.65
75357;HTU21D;63946;51.986;5.930;2022-10-17T09:41:19;17.05;78.81
75357;HTU21D;63946;51.986;5.930;2022-10-17T09:43:55;17.08;78.82
75357;HTU21D;63946;51.986;5.930;2022-10-17T09:46:37;17.06;79.26
75357;HTU21D;63946;51.986;5.930;2022-10-17T09:49:17;17.04;78.72
75357;HTU21D;63946;51.986;5.930;2022-10-17T09:51:47;17.02;78.61
75357;HTU21D;63946;51.986;5.930;2022-10-17T09:54:24;17.04;78.88
75357;HTU21D;63946;51.986;5.930;2022-10-17T09:57:02;17.06;79.03
75357;HTU21D;63946;51.986;5.930;2022-10-17T09:59:43;17.08;79.08
75357;HTU21D;63946;51.986;5.930;2022-10-17T10:05:01;17.09;79.62
75357;HTU21D;63946;51.986;5.930;2022-10-17T10:07:37;17.11;79.72
75357;HTU21D;63946;51.986;5.930;2022-10-17T10:10:22;17.15;79.72
75357;HTU21D;63946;51.986;5.930;2022-10-17T10:13:14;17.21;79.77
75357;HTU21D;63946;51.986;5.930;2022-10-17T10:15:47;17.25;79.55
75357;HTU21D;63946;51.986;5.930;2022-10-17T10:18:35;17.31;79.43
75357;HTU21D;63946;51.986;5.930;2022-10-17T10:23:40;17.33;79.37
75357;HTU21D;63946;51.986;5.930;2022-10-17T10:26:24;17.31;79.51
75357;HTU21D;63946;51.986;5.930;2022-10-17T10:29:33;17.28;79.82
75357;HTU21D;63946;51.986;5.930;2022-10-17T10:32:17;17.24;80.04
75357;HTU21D;63946;51.986;5.930;2022-10-17T10:35:01;17.23;80.05
75357;HTU21D;63946;51.986;5.930;2022-10-17T10:37:42;17.26;80.05
75357;HTU21D;63946;51.986;5.930;2022-10-17T10:40:31;17.29;80.11
75357;HTU21D;63946;51.986;5.930;2022-10-17T10:43:04;17.31;79.99
75357;HTU21D;63946;51.986;5.930;2022-10-17T10:48:17;17.36;80.24
75357;HTU21D;63946;51.986;5.930;2022-10-17T10:50:49;17.37;80.09
75357;HTU21D;63946;51.986;5.930;2022-10-17T10:56:15;17.48;79.81
75357;HTU21D;63946;51.986;5.930;2022-10-17T10:58:59;17.59;79.49
75357;HTU21D;63946;51.986;5.930;2022-10-17T11:01:43;17.67;79.27
75357;HTU21D;63946;51.986;5.930;2022-10-17T11:04:35;17.72;78.88
75357;HTU21D;63946;51.986;5.930;2022-10-17T11:07:12;17.74;79.00
75357;HTU21D;63946;51.986;5.930;2022-10-17T11:15:08;17.75;79.12
75357;HTU21D;63946;51.986;5.930;2022-10-17T11:18:02;17.75;79.14
75357;HTU21D;63946;51.986;5.930;2022-10-17T11:20:59;17.74;79.12
75357;HTU21D;63946;51.986;5.930;2022-10-17T11:23:40;17.76;78.65
75357;HTU21D;63946;51.986;5.930;2022-10-17T11:26:29;17.76;78.46
75357;HTU21D;63946;51.986;5.930;2022-10-17T11:29:02;17.78;78.69
75357;HTU21D;63946;51.986;5.930;2022-10-17T11:31:38;17.78;78.56
75357;HTU21D;63946;51.986;5.930;2022-10-17T11:34:25;17.77;78.62
75357;HTU21D;63946;51.986;5.930;2022-10-17T11:37:04;17.77;78.84
75357;HTU21D;63946;51.986;5.930;2022-10-17T11:39:41;17.76;78.89
75357;HTU21D;63946;51.986;5.930;2022-10-17T11:42:44;17.78;79.09
75357;HTU21D;63946;51.986;5.930;2022-10-17T11:45:19;17.79;79.02
75357;HTU21D;63946;51.986;5.930;2022-10-17T11:47:52;17.87;79.00
75357;HTU21D;63946;51.986;5.930;2022-10-17T11:50:42;17.90;78.98
75357;HTU21D;63946;51.986;5.930;2022-10-17T11:53:16;17.93;78.86
75357;HTU21D;63946;51.986;5.930;2022-10-17T11:55:49;17.97;78.62
75357;HTU21D;63946;51.986;5.930;2022-10-17T12:06:52;18.02;78.21
75357;HTU21D;63946;51.986;5.930;2022-10-17T12:12:30;17.96;78.63
75357;HTU21D;63946;51.986;5.930;2022-10-17T12:17:45;17.93;78.62
75357;HTU21D;63946;51.986;5.930;2022-10-17T12:25:49;17.95;78.37
75357;HTU21D;63946;51.986;5.930;2022-10-17T12:28:44;17.94;78.47
75357;HTU21D;63946;51.986;5.930;2022-10-17T12:31:23;17.93;78.52
75357;HTU21D;63946;51.986;5.930;2022-10-17T12:33:55;17.96;78.53
75357;HTU21D;63946;51.986;5.930;2022-10-17T12:46:49;17.97;78.71
75357;HTU21D;63946;51.986;5.930;2022-10-17T12:49:44;17.97;78.85
75357;HTU21D;63946;51.986;5.930;2022-10-17T12:57:52;17.99;78.90
75357;HTU21D;63946;51.986;5.930;2022-10-17T13:03:15;18.00;78.92
75357;HTU21D;63946;51.986;5.930;2022-10-17T13:05:50;18.03;78.81
75357;HTU21D;63946;51.986;5.930;2022-10-17T13:08:23;18.08;78.73
75357;HTU21D;63946;51.986;5.930;2022-10-17T13:10:56;18.13;78.69
75357;HTU21D;63946;51.986;5.930;2022-10-17T13:13:35;18.18;78.65
75357;HTU21D;63946;51.986;5.930;2022-10-17T13:16:07;18.19;78.62
75357;HTU21D;63946;51.986;5.930;2022-10-17T13:18:36;18.18;78.75
75357;HTU21D;63946;51.986;5.930;2022-10-17T13:21:13;18.18;78.78
75357;HTU21D;63946;51.986;5.930;2022-10-17T13:23:45;18.17;78.79
75357;HTU21D;63946;51.986;5.930;2022-10-17T13:26:18;18.19;78.70
75357;HTU21D;63946;51.986;5.930;2022-10-17T13:29:12;18.20;78.67
75357;HTU21D;63946;51.986;5.930;2022-10-17T13:31:51;18.22;78.64
75357;HTU21D;63946;51.986;5.930;2022-10-17T13:34:33;18.23;78.61
75357;HTU21D;63946;51.986;5.930;2022-10-17T13:37:04;18.25;78.64
75357;HTU21D;63946;51.986;5.930;2022-10-17T13:39:42;18.24;78.60
75357;HTU21D;63946;51.986;5.930;2022-10-17T13:42:22;18.21;78.56
75357;HTU21D;63946;51.986;5.930;2022-10-17T13:44:54;18.24;78.57
75357;HTU21D;63946;51.986;5.930;2022-10-17T13:47:35;18.25;78.63
75357;HTU21D;63946;51.986;5.930;2022-10-17T13:50:12;18.27;78.59
75357;HTU21D;63946;51.986;5.930;2022-10-17T13:52:48;18.28;78.47
75357;HTU21D;63946;51.986;5.930;2022-10-17T13:55:17;18.28;78.56
75357;HTU21D;63946;51.986;5.930;2022-10-17T13:57:48;18.27;78.53
75357;HTU21D;63946;51.986;5.930;2022-10-17T14:00:21;18.28;78.57
75357;HTU21D;63946;51.986;5.930;2022-10-17T14:02:53;18.26;78.59
75357;HTU21D;63946;51.986;5.930;2022-10-17T14:05:23;18.24;78.53
75357;HTU21D;63946;51.986;5.930;2022-10-17T14:08:00;18.24;78.61
75357;HTU21D;63946;51.986;5.930;2022-10-17T14:10:36;18.23;78.64
75357;HTU21D;63946;51.986;5.930;2022-10-17T14:13:13;18.23;78.68
75357;HTU21D;63946;51.986;5.930;2022-10-17T14:15:59;18.25;78.65
75357;HTU21D;63946;51.986;5.930;2022-10-17T14:18:33;18.32;78.59
75357;HTU21D;63946;51.986;5.930;2022-10-17T14:21:07;18.35;78.50
75357;HTU21D;63946;51.986;5.930;2022-10-17T14:23:40;18.36;78.48
75357;HTU21D;63946;51.986;5.930;2022-10-17T14:26:19;18.37;78.37
75357;HTU21D;63946;51.986;5.930;2022-10-17T14:29:05;18.37;78.23
75357;HTU21D;63946;51.986;5.930;2022-10-17T14:31:47;18.37;78.29
75357;HTU21D;63946;51.986;5.930;2022-10-17T14:34:28;18.37;78.27
75357;HTU21D;63946;51.986;5.930;2022-10-17T14:36:58;18.37;78.19
75357;HTU21D;63946;51.986;5.930;2022-10-17T14:39:27;18.36;78.26
75357;HTU21D;63946;51.986;5.930;2022-10-17T14:41:57;18.37;78.29
75357;HTU21D;63946;51.986;5.930;2022-10-17T14:44:32;18.38;78.26
75357;HTU21D;63946;51.986;5.930;2022-10-17T14:47:04;18.37;78.29
75357;HTU21D;63946;51.986;5.930;2022-10-17T14:49:37;18.37;78.32
75357;HTU21D;63946;51.986;5.930;2022-10-17T14:54:47;18.39;78.26
75357;HTU21D;63946;51.986;5.930;2022-10-17T14:57:38;18.38;78.33
75357;HTU21D;63946;51.986;5.930;2022-10-17T15:00:20;18.38;78.30
75357;HTU21D;63946;51.986;5.930;2022-10-17T15:02:51;18.39;78.22
75357;HTU21D;63946;51.986;5.930;2022-10-17T15:05:20;18.40;78.18
75357;HTU21D;63946;51.986;5.930;2022-10-17T15:07:52;18.37;78.21
75357;HTU21D;63946;51.986;5.930;2022-10-17T15:10:35;18.35;78.14
75357;HTU21D;63946;51.986;5.930;2022-10-17T15:13:07;18.29;78.21
75357;HTU21D;63946;51.986;5.930;2022-10-17T15:15:37;18.24;78.35
75357;HTU21D;63946;51.986;5.930;2022-10-17T15:18:11;18.25;78.25
75357;HTU21D;63946;51.986;5.930;2022-10-17T15:20:40;18.25;78.30
75357;HTU21D;63946;51.986;5.930;2022-10-17T15:23:09;18.24;78.24
75357;HTU21D;63946;51.986;5.930;2022-10-17T15:25:40;18.26;78.27
75357;HTU21D;63946;51.986;5.930;2022-10-17T15:28:11;18.26;78.24
75357;HTU21D;63946;51.986;5.930;2022-10-17T15:30:40;18.26;78.26
75357;HTU21D;63946;51.986;5.930;2022-10-17T15:33:09;18.25;78.24
75357;HTU21D;63946;51.986;5.930;2022-10-17T15:35:38;18.24;78.23
75357;HTU21D;63946;51.986;5.930;2022-10-17T15:38:07;18.24;78.23
75357;HTU21D;63946;51.986;5.930;2022-10-17T15:40:36;18.24;77.95
75357;HTU21D;63946;51.986;5.930;2022-10-17T15:43:05;18.22;77.95
75357;HTU21D;63946;51.986;5.930;2022-10-17T15:45:34;18.21;78.19
75357;HTU21D;63946;51.986;5.930;2022-10-17T15:48:05;18.21;78.24
75357;HTU21D;63946;51.986;5.930;2022-10-17T15:50:34;18.21;78.24
75357;HTU21D;63946;51.986;5.930;2022-10-17T15:53:04;18.20;78.21
75357;HTU21D;63946;51.986;5.930;2022-10-17T15:55:36;18.18;78.32
75357;HTU21D;63946;51.986;5.930;2022-10-17T15:58:05;18.15;78.37
75357;HTU21D;63946;51.986;5.930;2022-10-17T16:00:34;18.12;78.45
75357;HTU21D;63946;51.986;5.930;2022-10-17T16:03:10;18.10;78.50
75357;HTU21D;63946;51.986;5.930;2022-10-17T16:05:42;18.09;78.55
75357;HTU21D;63946;51.986;5.930;2022-10-17T16:08:11;18.08;78.55
75357;HTU21D;63946;51.986;5.930;2022-10-17T16:10:41;18.03;78.59
75357;HTU21D;63946;51.986;5.930;2022-10-17T16:13:18;17.99;78.62
75357;HTU21D;63946;51.986;5.930;2022-10-17T16:15:48;17.97;78.66
75357;HTU21D;63946;51.986;5.930;2022-10-17T16:18:17;17.93;78.66
75357;HTU21D;63946;51.986;5.930;2022-10-17T16:20:46;17.89;78.79
75357;HTU21D;63946;51.986;5.930;2022-10-17T16:23:15;17.87;78.86
75357;HTU21D;63946;51.986;5.930;2022-10-17T16:25:44;17.83;78.89
75357;HTU21D;63946;51.986;5.930;2022-10-17T16:28:18;17.80;78.97
75357;HTU21D;63946;51.986;5.930;2022-10-17T16:30:50;17.80;78.98
75357;HTU21D;63946;51.986;5.930;2022-10-17T16:33:19;17.78;78.96
75357;HTU21D;63946;51.986;5.930;2022-10-17T16:35:48;17.76;78.90
75357;HTU21D;63946;51.986;5.930;2022-10-17T16:38:17;17.75;78.92
75357;HTU21D;63946;51.986;5.930;2022-10-17T16:40:46;17.70;78.98
75357;HTU21D;63946;51.986;5.930;2022-10-17T16:43:14;17.67;79.09
75357;HTU21D;63946;51.986;5.930;2022-10-17T16:45:45;17.64;79.19
75357;HTU21D;63946;51.986;5.930;2022-10-17T16:48:14;17.61;79.24
75357;HTU21D;63946;51.986;5.930;2022-10-17T16:50:43;17.61;79.23
75357;HTU21D;63946;51.986;5.930;2022-10-17T16:53:11;17.59;79.24
75357;HTU21D;63946;51.986;5.930;2022-10-17T16:55:40;17.60;79.21
75357;HTU21D;63946;51.986;5.930;2022-10-17T16:58:09;17.60;79.17
75357;HTU21D;63946;51.986;5.930;2022-10-17T17:00:38;17.62;79.17
75357;HTU21D;63946;51.986;5.930;2022-10-17T17:03:07;17.63;79.25
75357;HTU21D;63946;51.986;5.930;2022-10-17T17:05:36;17.64;79.19
75357;HTU21D;63946;51.986;5.930;2022-10-17T17:08:05;17.62;79.26
75357;HTU21D;63946;51.986;5.930;2022-10-17T17:10:36;17.62;79.29
75357;HTU21D;63946;51.986;5.930;2022-10-17T17:13:05;17.63;79.24
75357;HTU21D;63946;51.986;5.930;2022-10-17T17:15:34;17.64;79.17
75357;HTU21D;63946;51.986;5.930;2022-10-17T17:18:05;17.64;79.11
75357;HTU21D;63946;51.986;5.930;2022-10-17T17:20:39;17.63;79.22
75357;HTU21D;63946;51.986;5.930;2022-10-17T17:23:08;17.60;79.33
75357;HTU21D;63946;51.986;5.930;2022-10-17T17:25:40;17.58;79.29
75357;HTU21D;63946;51.986;5.930;2022-10-17T17:28:10;17.54;79.38
75357;HTU21D;63946;51.986;5.930;2022-10-17T17:30:41;17.52;79.41
75357;HTU21D;63946;51.986;5.930;2022-10-17T17:33:13;17.49;79.46
75357;HTU21D;63946;51.986;5.930;2022-10-17T17:35:42;17.48;79.45
75357;HTU21D;63946;51.986;5.930;2022-10-17T17:38:13;17.44;79.48
75357;HTU21D;63946;51.986;5.930;2022-10-17T17:40:46;17.43;79.53
75357;HTU21D;63946;51.986;5.930;2022-10-17T17:43:15;17.41;79.54
75357;HTU21D;63946;51.986;5.930;2022-10-17T17:45:45;17.39;79.56
75357;HTU21D;63946;51.986;5.930;2022-10-17T17:48:13;17.38;79.60
75357;HTU21D;63946;51.986;5.930;2022-10-17T17:50:43;17.37;79.53
75357;HTU21D;63946;51.986;5.930;2022-10-17T17:53:14;17.37;79.49
75357;HTU21D;63946;51.986;5.930;2022-10-17T17:55:43;17.37;79.53
75357;HTU21D;63946;51.986;5.930;2022-10-17T17:58:14;17.34;79.49
75357;HTU21D;63946;51.986;5.930;2022-10-17T18:00:50;17.32;79.56
75357;HTU21D;63946;51.986;5.930;2022-10-17T18:03:20;17.31;79.55
75357;HTU21D;63946;51.986;5.930;2022-10-17T18:05:49;17.29;79.60
75357;HTU21D;63946;51.986;5.930;2022-10-17T18:08:18;17.28;79.66
75357;HTU21D;63946;51.986;5.930;2022-10-17T18:10:49;17.25;79.68
75357;HTU21D;63946;51.986;5.930;2022-10-17T18:13:19;17.21;79.72
75357;HTU21D;63946;51.986;5.930;2022-10-17T18:15:48;17.18;79.82
75357;HTU21D;63946;51.986;5.930;2022-10-17T18:18:20;17.16;79.83
75357;HTU21D;63946;51.986;5.930;2022-10-17T18:20:49;17.14;79.89
75357;HTU21D;63946;51.986;5.930;2022-10-17T18:23:26;17.15;79.91
75357;HTU21D;63946;51.986;5.930;2022-10-17T18:25:59;17.16;79.86
75357;HTU21D;63946;51.986;5.930;2022-10-17T18:28:33;17.17;79.90
75357;HTU21D;63946;51.986;5.930;2022-10-17T18:31:04;17.14;79.86
75357;HTU21D;63946;51.986;5.930;2022-10-17T18:33:36;17.11;79.97
75357;HTU21D;63946;51.986;5.930;2022-10-17T18:36:11;17.10;79.95
75357;HTU21D;63946;51.986;5.930;2022-10-17T18:38:40;17.09;79.98
75357;HTU21D;63946;51.986;5.930;2022-10-17T18:41:14;17.09;79.95
75357;HTU21D;63946;51.986;5.930;2022-10-17T18:43:47;17.09;79.93
75357;HTU21D;63946;51.986;5.930;2022-10-17T18:46:21;17.08;79.91
75357;HTU21D;63946;51.986;5.930;2022-10-17T18:48:53;17.08;79.95
75357;HTU21D;63946;51.986;5.930;2022-10-17T18:51:23;17.10;79.89
75357;HTU21D;63946;51.986;5.930;2022-10-17T18:53:54;17.09;79.87
75357;HTU21D;63946;51.986;5.930;2022-10-17T18:56:24;17.09;79.88
75357;HTU21D;63946;51.986;5.930;2022-10-17T18:58:54;17.10;79.89
75357;HTU21D;63946;51.986;5.930;2022-10-17T19:01:27;17.11;79.84
75357;HTU21D;63946;51.986;5.930;2022-10-17T19:03:57;17.13;79.82
75357;HTU21D;63946;51.986;5.930;2022-10-17T19:06:29;17.13;79.81
75357;HTU21D;63946;51.986;5.930;2022-10-17T19:09:00;17.13;79.83
75357;HTU21D;63946;51.986;5.930;2022-10-17T19:11:31;17.13;79.88
75357;HTU21D;63946;51.986;5.930;2022-10-17T19:14:05;17.14;79.87
75357;HTU21D;63946;51.986;5.930;2022-10-17T19:16:40;17.14;79.80
75357;HTU21D;63946;51.986;5.930;2022-10-17T19:19:15;17.15;79.85
75357;HTU21D;63946;51.986;5.930;2022-10-17T19:21:44;17.14;79.94
75357;HTU21D;63946;51.986;5.930;2022-10-17T19:24:18;17.11;79.97
75357;HTU21D;63946;51.986;5.930;2022-10-17T19:26:50;17.13;79.94
75357;HTU21D;63946;51.986;5.930;2022-10-17T19:29:22;17.09;79.95
75357;HTU21D;63946;51.986;5.930;2022-10-17T19:31:52;17.07;80.00
75357;HTU21D;63946;51.986;5.930;2022-10-17T19:34:23;17.05;80.04
75357;HTU21D;63946;51.986;5.930;2022-10-17T19:36:52;17.04;80.04
75357;HTU21D;63946;51.986;5.930;2022-10-17T19:39:22;17.02;80.02
75357;HTU21D;63946;51.986;5.930;2022-10-17T19:41:53;17.03;80.04
75357;HTU21D;63946;51.986;5.930;2022-10-17T19:44:22;17.05;80.01
75357;HTU21D;63946;51.986;5.930;2022-10-17T19:46:52;17.06;79.96
75357;HTU21D;63946;51.986;5.930;2022-10-17T19:49:21;17.07;79.91
75357;HTU21D;63946;51.986;5.930;2022-10-17T19:51:50;17.08;79.89
75357;HTU21D;63946;51.986;5.930;2022-10-17T19:54:19;17.08;79.88
75357;HTU21D;63946;51.986;5.930;2022-10-17T19:56:51;17.06;79.91
75357;HTU21D;63946;51.986;5.930;2022-10-17T19:59:20;17.04;80.01
75357;HTU21D;63946;51.986;5.930;2022-10-17T20:01:50;17.01;80.10
75357;HTU21D;63946;51.986;5.930;2022-10-17T20:04:19;16.99;80.14
75357;HTU21D;63946;51.986;5.930;2022-10-17T20:06:48;16.96;80.12
75357;HTU21D;63946;51.986;5.930;2022-10-17T20:09:17;16.95;80.11
75357;HTU21D;63946;51.986;5.930;2022-10-17T20:11:48;16.95;80.08
75357;HTU21D;63946;51.986;5.930;2022-10-17T20:14:17;16.94;80.08
75357;HTU21D;63946;51.986;5.930;2022-10-17T20:16:50;16.93;80.07
75357;HTU21D;63946;51.986;5.930;2022-10-17T20:19:19;16.92;80.13
75357;HTU21D;63946;51.986;5.930;2022-10-17T20:21:48;16.91;80.12
75357;HTU21D;63946;51.986;5.930;2022-10-17T20:24:17;16.88;80.07
75357;HTU21D;63946;51.986;5.930;2022-10-17T20:26:46;16.87;80.06
75357;HTU21D;63946;51.986;5.930;2022-10-17T20:29:19;16.86;80.03
75357;HTU21D;63946;51.986;5.930;2022-10-17T20:31:49;16.84;80.05
75357;HTU21D;63946;51.986;5.930;2022-10-17T20:34:18;16.80;80.04
75357;HTU21D;63946;51.986;5.930;2022-10-17T20:36:48;16.78;80.06
75357;HTU21D;63946;51.986;5.930;2022-10-17T20:39:18;16.78;80.07
75357;HTU21D;63946;51.986;5.930;2022-10-17T20:41:47;16.77;79.98
75357;HTU21D;63946;51.986;5.930;2022-10-17T20:44:30;16.77;79.95
75357;HTU21D;63946;51.986;5.930;2022-10-17T20:46:58;16.78;79.94
75357;HTU21D;63946;51.986;5.930;2022-10-17T20:49:28;16.78;79.89
75357;HTU21D;63946;51.986;5.930;2022-10-17T20:51:57;16.79;79.86
75357;HTU21D;63946;51.986;5.930;2022-10-17T20:54:26;16.79;79.82
75357;HTU21D;63946;51.986;5.930;2022-10-17T20:56:55;16.80;79.81
75357;HTU21D;63946;51.986;5.930;2022-10-17T20:59:25;16.81;79.80
75357;HTU21D;63946;51.986;5.930;2022-10-17T21:01:56;16.84;79.83
75357;HTU21D;63946;51.986;5.930;2022-10-17T21:04:24;16.84;79.98
75357;HTU21D;63946;51.986;5.930;2022-10-17T21:06:55;16.84;80.02
75357;HTU21D;63946;51.986;5.930;2022-10-17T21:09:24;16.88;79.96
75357;HTU21D;63946;51.986;5.930;2022-10-17T21:11:53;16.89;80.02
75357;HTU21D;63946;51.986;5.930;2022-10-17T21:14:23;16.90;80.03
75357;HTU21D;63946;51.986;5.930;2022-10-17T21:16:52;16.93;79.92
75357;HTU21D;63946;51.986;5.930;2022-10-17T21:19:23;16.93;79.78
75357;HTU21D;63946;51.986;5.930;2022-10-17T21:21:52;16.94;79.81
75357;HTU21D;63946;51.986;5.930;2022-10-17T21:24:20;16.94;79.86
75357;HTU21D;63946;51.986;5.930;2022-10-17T21:26:49;16.96;79.91
75357;HTU21D;63946;51.986;5.930;2022-10-17T21:29:20;16.95;79.98
75357;HTU21D;63946;51.986;5.930;2022-10-17T21:31:50;16.95;80.10
75357;HTU21D;63946;51.986;5.930;2022-10-17T21:34:22;16.99;80.08